createdAt,value
2022-12-07T00:01:19.987Z,100461.16
2022-12-07T00:03:47.943Z,100468.25
2022-12-07T00:06:16.428Z,100469.47
2022-12-07T00:08:42.934Z,100454.09
2022-12-07T00:11:14.750Z,100459.50
2022-12-07T00:13:41.814Z,100456.13
2022-12-07T00:16:16.650Z,100456.97
2022-12-07T00:18:43.607Z,100455.97
2022-12-07T00:21:15.546Z,100447.19
2022-12-07T00:23:43.391Z,100455.16
2022-12-07T00:26:16.877Z,100449.88
2022-12-07T00:28:46.987Z,100442.91
2022-12-07T00:31:14.386Z,100445.75
2022-12-07T00:33:40.762Z,100458.38
2022-12-07T00:36:09.896Z,100452.16
2022-12-07T00:38:37.518Z,100446.47
2022-12-07T00:41:06.180Z,100445.56
2022-12-07T00:43:32.522Z,100445.56
2022-12-07T00:45:59.210Z,100444.69
2022-12-07T00:48:26.239Z,100440.50
2022-12-07T00:50:52.933Z,100457.75
2022-12-07T00:53:19.561Z,100452.47
2022-12-07T00:55:46.398Z,100454.16
2022-12-07T00:58:12.759Z,100443.09
2022-12-07T01:00:40.817Z,100455.97
2022-12-07T01:03:09.105Z,100454.59
2022-12-07T01:05:35.768Z,100443.06
2022-12-07T01:08:02.367Z,100447.59
2022-12-07T01:10:29.462Z,100444.56
2022-12-07T01:12:55.594Z,100446.78
2022-12-07T01:15:21.719Z,100440.94
2022-12-07T01:17:47.844Z,100444.94
2022-12-07T01:20:14.246Z,100443.38
2022-12-07T01:22:44.334Z,100423.81
2022-12-07T01:25:12.192Z,100429.09
2022-12-07T01:27:38.744Z,100432.16
2022-12-07T01:30:06.919Z,100433.47
2022-12-07T01:32:33.592Z,100430.50
2022-12-07T01:34:59.709Z,100435.31
2022-12-07T01:37:25.918Z,100430.78
2022-12-07T01:39:52.589Z,100425.50
2022-12-07T01:42:19.460Z,100425.28
2022-12-07T01:45:19.888Z,100425.72
2022-12-07T01:47:51.492Z,100425.19
2022-12-07T01:50:17.634Z,100415.38
2022-12-07T01:52:46.353Z,100419.72
2022-12-07T01:55:16.069Z,100423.00
2022-12-07T01:57:49.574Z,100410.91
2022-12-07T02:00:16.224Z,100411.34
2022-12-07T02:02:56.269Z,100400.03
2022-12-07T02:05:25.701Z,100395.28
2022-12-07T02:07:55.691Z,100392.22
2022-12-07T02:10:28.041Z,100393.25
2022-12-07T02:12:58.453Z,100396.34
2022-12-07T02:15:39.448Z,100390.84
2022-12-07T02:18:15.534Z,100389.47
2022-12-07T02:20:53.170Z,100386.53
2022-12-07T02:23:40.362Z,100386.66
2022-12-07T02:26:32.765Z,100385.78
2022-12-07T02:29:22.441Z,100382.84
2022-12-07T02:32:05.171Z,100379.38
2022-12-07T02:34:43.186Z,100378.72
2022-12-07T02:37:21.041Z,100376.72
2022-12-07T02:39:54.287Z,100367.09
2022-12-07T02:42:27.748Z,100364.78
2022-12-07T02:44:54.269Z,100366.91
2022-12-07T02:47:23.634Z,100355.38
2022-12-07T02:49:51.094Z,100362.13
2022-12-07T02:52:17.273Z,100365.09
2022-12-07T02:54:43.388Z,100360.22
2022-12-07T02:57:26.122Z,100366.34
2022-12-07T02:59:58.091Z,100363.94
2022-12-07T03:02:44.393Z,100350.31
2022-12-07T03:05:47.485Z,100346.72
2022-12-07T03:08:32.899Z,100347.47
2022-12-07T03:11:09.736Z,100345.03
2022-12-07T03:13:43.392Z,100335.31
2022-12-07T03:16:16.630Z,100327.38
2022-12-07T03:18:51.042Z,100322.34
2022-12-07T03:21:23.429Z,100318.81
2022-12-07T03:23:54.797Z,100323.69
2022-12-07T03:26:24.720Z,100317.88
2022-12-07T03:28:56.842Z,100319.66
2022-12-07T03:31:25.067Z,100316.09
2022-12-07T03:34:16.182Z,100306.81
2022-12-07T03:36:52.256Z,100303.84
2022-12-07T03:39:42.885Z,100301.50
2022-12-07T03:42:11.870Z,100294.31
2022-12-07T03:44:39.422Z,100298.72
2022-12-07T03:47:12.536Z,100288.91
2022-12-07T03:49:42.490Z,100282.03
2022-12-07T03:52:20.553Z,100277.00
2022-12-07T03:54:58.914Z,100272.34
2022-12-07T03:57:28.054Z,100271.72
2022-12-07T03:59:56.405Z,100270.47
2022-12-07T22:06:22.884Z,100161.38
2022-12-07T22:08:49.167Z,100158.13
2022-12-07T22:11:15.552Z,100155.66
2022-12-07T22:14:06.707Z,100161.38
2022-12-07T22:16:36.030Z,100166.09
2022-12-07T22:19:02.209Z,100165.72
2022-12-07T22:21:29.782Z,100166.22
2022-12-07T22:23:55.919Z,100175.41
2022-12-07T22:26:24.547Z,100170.06
2022-12-07T22:28:50.958Z,100174.00
2022-12-07T22:31:18.699Z,100166.50
2022-12-07T22:33:45.078Z,100167.34
2022-12-07T22:36:11.686Z,100166.41
2022-12-07T22:38:39.307Z,100173.34
2022-12-07T22:41:32.726Z,100170.16
2022-12-07T22:43:59.786Z,100172.53
2022-12-07T22:46:26.068Z,100171.56
2022-12-07T22:48:53.469Z,100165.91
2022-12-07T22:51:33.814Z,100167.41
2022-12-07T22:54:02.483Z,100172.50
2022-12-07T22:56:30.752Z,100163.38
2022-12-07T22:58:57.158Z,100161.41
2022-12-07T23:01:24.457Z,100157.63
2022-12-07T23:03:51.307Z,100159.31
2022-12-07T23:06:23.981Z,100162.50
2022-12-07T23:08:50.617Z,100167.03
2022-12-07T23:11:38.444Z,100170.97
2022-12-07T23:14:12.780Z,100170.00
2022-12-07T23:16:39.212Z,100171.72
2022-12-07T23:19:05.451Z,100168.22
2022-12-07T23:21:31.687Z,100161.28
2022-12-07T23:23:58.041Z,100163.50
2022-12-07T23:26:24.274Z,100148.66
2022-12-07T23:28:50.403Z,100153.81
2022-12-07T23:31:18.727Z,100142.44
2022-12-07T23:33:45.434Z,100145.81
2022-12-07T23:36:15.354Z,100145.09
2022-12-07T23:38:42.860Z,100145.81
2022-12-07T23:41:11.434Z,100140.38
2022-12-07T23:43:38.497Z,100135.13
2022-12-07T23:46:11.895Z,100140.66
2022-12-07T23:48:38.920Z,100138.13
2022-12-07T23:51:06.132Z,100128.72
2022-12-07T23:53:45.140Z,100137.28
2022-12-07T23:56:20.368Z,100135.22
2022-12-07T23:58:47.888Z,100130.88
